Time;durP1;ratioP1;P1;durP2;ratioP2;P2;SDS_P1;SDS_P2;PMS_P1;PMS_P2;Temp;Humidity;BMP_temperature;BMP_pressure;BME280_temperature;BME280_humidity;BME280_pressure;Samples;Min_cycle;Max_cycle;Signal;HPM_P1;HPM_P2
2021/12/27 00:00:57;;;;;;;24.17;11.65;;;;;;;;;;5092785;28;20032;-76
2021/12/27 00:03:23;;;;;;;20.42;9.48;;;;;;;;;;5091848;28;20078;-77
2021/12/27 00:05:49;;;;;;;24.67;11.82;;;;;;;;;;5094528;28;20056;-76
2021/12/27 00:08:15;;;;;;;24.60;11.68;;;;;;;;;;5093589;28;20071;-76
2021/12/27 00:10:41;;;;;;;23.92;10.55;;;;;;;;;;5092910;28;20079;-75
2021/12/27 00:13:07;;;;;;;19.70;10.50;;;;;;;;;;5093155;28;20044;-77
2021/12/27 00:15:34;;;;;;;26.35;10.98;;;;;;;;;;5092903;28;20065;-76
2021/12/27 00:18:00;;;;;;;25.08;11.68;;;;;;;;;;5080596;28;20036;-77
2021/12/27 00:20:27;;;;;;;24.08;12.25;;;;;;;;;;5082405;28;20040;-76
2021/12/27 00:22:53;;;;;;;23.42;11.55;;;;;;;;;;5079251;28;20067;-77
2021/12/27 00:25:20;;;;;;;23.20;11.55;;;;;;;;;;5079220;28;20483;-78
2021/12/27 00:27:46;;;;;;;21.25;10.77;;;;;;;;;;5081188;28;20048;-76
2021/12/27 00:30:12;;;;;;;23.38;11.40;;;;;;;;;;5079443;28;20097;-77
2021/12/27 00:32:40;;;;;;;20.77;11.57;;;;;;;;;;5083652;28;20543;-77
2021/12/27 00:35:08;;;;;;;22.92;11.07;;;;;;;;;;5082523;28;20455;-77
2021/12/27 00:37:34;;;;;;;22.65;11.60;;;;;;;;;;5079321;28;20037;-76
2021/12/27 00:40:00;;;;;;;28.60;12.23;;;;;;;;;;5083867;28;20492;-76
2021/12/27 00:42:26;;;;;;;25.40;11.07;;;;;;;;;;5082146;28;20051;-77
2021/12/27 00:44:52;;;;;;;23.02;11.75;;;;;;;;;;5081082;28;20044;-77
2021/12/27 00:47:18;;;;;;;21.88;11.88;;;;;;;;;;5088331;28;20059;-77
2021/12/27 00:49:44;;;;;;;30.42;12.02;;;;;;;;;;5088582;28;20067;-76
2021/12/27 00:52:10;;;;;;;24.20;11.35;;;;;;;;;;5074338;28;20033;-77
2021/12/27 00:54:36;;;;;;;21.70;10.38;;;;;;;;;;5078848;28;20043;-75
2021/12/27 00:57:02;;;;;;;19.45;11.70;;;;;;;;;;5085089;28;20098;-77
2021/12/27 00:59:28;;;;;;;27.25;11.38;;;;;;;;;;5082854;28;20124;-77
2021/12/27 01:01:56;;;;;;;22.95;12.68;;;;;;;;;;5084245;28;20074;-77
2021/12/27 01:04:22;;;;;;;23.45;11.35;;;;;;;;;;5069373;28;20037;-78
2021/12/27 01:06:48;;;;;;;24.13;11.75;;;;;;;;;;5082510;28;20136;-77
2021/12/27 01:09:23;;;;;;;27.17;11.88;;;;;;;;;;5084061;28;20113;-77
2021/12/27 01:14:43;;;;;;;25.70;11.98;;;;;;;;;;5091328;28;20040;-77
2021/12/27 01:17:09;;;;;;;23.23;11.27;;;;;;;;;;5084068;28;20078;-77
2021/12/27 01:19:35;;;;;;;23.02;11.45;;;;;;;;;;5082540;28;20103;-77
2021/12/27 01:22:01;;;;;;;22.73;11.95;;;;;;;;;;5082489;28;20079;-78
2021/12/27 01:24:27;;;;;;;25.83;11.65;;;;;;;;;;5078833;28;20041;-77
2021/12/27 01:26:53;;;;;;;20.52;11.57;;;;;;;;;;5073035;28;20094;-77
2021/12/27 01:29:19;;;;;;;24.08;12.63;;;;;;;;;;5072879;28;20037;-77
2021/12/27 01:31:45;;;;;;;22.10;11.68;;;;;;;;;;5072925;28;20048;-77
2021/12/27 01:34:11;;;;;;;28.52;12.98;;;;;;;;;;5110771;28;20040;-77
2021/12/27 01:36:37;;;;;;;23.35;12.15;;;;;;;;;;5096136;28;20131;-77
2021/12/27 01:39:04;;;;;;;21.50;12.93;;;;;;;;;;5096082;28;20376;-77
2021/12/27 01:41:30;;;;;;;23.05;11.95;;;;;;;;;;5112731;28;20040;-77
2021/12/27 01:43:56;;;;;;;26.55;12.80;;;;;;;;;;5113000;28;20031;-77
2021/12/27 01:46:24;;;;;;;23.05;12.07;;;;;;;;;;5096057;28;20460;-77
2021/12/27 01:48:58;;;;;;;22.88;12.18;;;;;;;;;;5112789;28;20035;-78
2021/12/27 01:51:25;;;;;;;22.58;12.70;;;;;;;;;;5112425;28;20040;-77
2021/12/27 01:53:52;;;;;;;26.13;11.90;;;;;;;;;;5095025;28;20548;-77
2021/12/27 01:56:20;;;;;;;24.73;11.55;;;;;;;;;;5095104;28;20081;-76
2021/12/27 01:58:47;;;;;;;19.27;11.40;;;;;;;;;;5112540;28;20351;-77
2021/12/27 02:01:15;;;;;;;26.00;12.50;;;;;;;;;;5112332;28;20492;-77
2021/12/27 02:03:42;;;;;;;25.10;12.50;;;;;;;;;;5079045;28;20051;-78
2021/12/27 02:06:09;;;;;;;26.75;13.63;;;;;;;;;;5090935;28;20063;-77
2021/12/27 02:08:36;;;;;;;25.88;12.60;;;;;;;;;;5091269;28;20059;-77
2021/12/27 02:11:02;;;;;;;30.85;12.38;;;;;;;;;;5091158;28;20039;-77
2021/12/27 02:13:28;;;;;;;27.83;12.65;;;;;;;;;;5091484;28;20050;-77
2021/12/27 02:15:54;;;;;;;26.85;13.52;;;;;;;;;;5091548;28;20036;-78
2021/12/27 02:18:20;;;;;;;20.75;11.40;;;;;;;;;;5091196;28;20502;-77
2021/12/27 02:20:46;;;;;;;25.52;13.70;;;;;;;;;;5091857;28;20407;-78
2021/12/27 02:23:18;;;;;;;24.48;12.70;;;;;;;;;;5091507;28;20140;-78
2021/12/27 02:25:46;;;;;;;28.33;12.95;;;;;;;;;;5091017;28;20385;-77
2021/12/27 02:28:12;;;;;;;24.13;12.95;;;;;;;;;;5090762;28;20404;-78
2021/12/27 02:30:38;;;;;;;27.35;13.13;;;;;;;;;;5091120;28;20570;-77
2021/12/27 02:33:05;;;;;;;29.15;13.40;;;;;;;;;;5089547;28;20040;-78
2021/12/27 02:35:37;;;;;;;24.35;11.82;;;;;;;;;;5073828;28;20085;-78
2021/12/27 02:38:04;;;;;;;25.73;13.13;;;;;;;;;;5074056;28;20089;-77
2021/12/27 02:40:31;;;;;;;26.40;13.00;;;;;;;;;;5090517;28;20040;-78
2021/12/27 02:43:06;;;;;;;26.10;13.00;;;;;;;;;;5073605;28;20040;-78
2021/12/27 02:45:36;;;;;;;26.65;13.38;;;;;;;;;;5073568;28;20537;-78
2021/12/27 02:48:03;;;;;;;29.27;13.05;;;;;;;;;;5090448;28;20044;-77
2021/12/27 02:50:29;;;;;;;22.95;13.05;;;;;;;;;;5073516;28;20511;-78
2021/12/27 02:52:56;;;;;;;26.05;12.52;;;;;;;;;;5090332;28;20043;-78
2021/12/27 02:55:23;;;;;;;24.55;13.23;;;;;;;;;;5073266;28;20090;-78
2021/12/27 02:57:50;;;;;;;26.42;13.18;;;;;;;;;;5090059;28;20492;-77
2021/12/27 03:00:20;;;;;;;23.33;12.73;;;;;;;;;;5090338;28;20075;-78
2021/12/27 03:02:47;;;;;;;25.90;12.73;;;;;;;;;;5090008;28;20101;-78
2021/12/27 03:05:16;;;;;;;25.15;13.80;;;;;;;;;;5090090;28;20060;-77
2021/12/27 03:07:43;;;;;;;27.30;12.32;;;;;;;;;;5075040;28;20097;-77
2021/12/27 03:10:10;;;;;;;26.25;13.30;;;;;;;;;;5077177;28;20047;-77
2021/12/27 03:12:38;;;;;;;29.42;14.48;;;;;;;;;;5094579;28;20040;-78
2021/12/27 03:15:04;;;;;;;24.33;12.95;;;;;;;;;;5077382;28;20044;-77
2021/12/27 03:17:30;;;;;;;25.67;13.27;;;;;;;;;;5077351;28;20036;-77
2021/12/27 03:19:56;;;;;;;25.52;12.80;;;;;;;;;;5077351;28;20351;-77
2021/12/27 03:22:22;;;;;;;29.88;13.60;;;;;;;;;;5094292;28;20047;-78
2021/12/27 03:24:48;;;;;;;26.38;12.95;;;;;;;;;;5094136;28;20058;-78
2021/12/27 03:27:14;;;;;;;24.90;13.20;;;;;;;;;;5093696;28;20044;-77
2021/12/27 03:29:40;;;;;;;28.75;14.65;;;;;;;;;;5093804;28;20048;-78
2021/12/27 03:32:06;;;;;;;25.35;13.05;;;;;;;;;;5093712;28;20036;-78
2021/12/27 03:34:33;;;;;;;26.42;13.18;;;;;;;;;;5093658;28;20070;-78
2021/12/27 03:36:59;;;;;;;26.13;14.15;;;;;;;;;;5093584;28;20096;-77
2021/12/27 03:39:25;;;;;;;26.83;13.18;;;;;;;;;;5076757;28;20050;-78
2021/12/27 03:41:51;;;;;;;25.35;13.02;;;;;;;;;;5093253;28;20131;-78
2021/12/27 03:44:17;;;;;;;28.95;12.73;;;;;;;;;;5093667;28;20130;-78
2021/12/27 03:46:43;;;;;;;30.30;14.20;;;;;;;;;;5076949;28;20044;-78
2021/12/27 03:49:09;;;;;;;30.88;12.48;;;;;;;;;;5076499;28;20051;-76
2021/12/27 03:51:35;;;;;;;28.60;13.98;;;;;;;;;;5093163;28;20491;-78
2021/12/27 03:54:01;;;;;;;29.35;13.90;;;;;;;;;;5093485;28;20399;-78
2021/12/27 03:56:27;;;;;;;27.23;13.48;;;;;;;;;;5093638;28;20395;-78
2021/12/27 03:58:58;;;;;;;28.45;13.27;;;;;;;;;;5076560;28;20100;-77
2021/12/27 04:01:25;;;;;;;26.60;12.73;;;;;;;;;;5093309;28;20071;-76
2021/12/27 04:03:52;;;;;;;25.50;13.45;;;;;;;;;;5093187;28;20044;-78
2021/12/27 04:06:19;;;;;;;25.20;12.77;;;;;;;;;;5089200;28;20109;-78
2021/12/27 04:08:45;;;;;;;27.40;14.27;;;;;;;;;;5091780;28;20036;-78
2021/12/27 04:11:12;;;;;;;32.28;14.85;;;;;;;;;;5091621;28;20036;-78
2021/12/27 04:13:38;;;;;;;29.40;13.32;;;;;;;;;;5091816;28;20488;-78
2021/12/27 04:16:04;;;;;;;29.08;13.75;;;;;;;;;;5091673;28;20036;-78
2021/12/27 04:18:30;;;;;;;27.27;14.35;;;;;;;;;;5091319;28;20098;-78
2021/12/27 04:20:56;;;;;;;27.65;13.57;;;;;;;;;;5092024;28;20130;-78
2021/12/27 04:23:22;;;;;;;26.55;13.45;;;;;;;;;;5091566;28;20071;-77
2021/12/27 04:25:48;;;;;;;25.77;12.13;;;;;;;;;;5091403;28;20052;-78
2021/12/27 04:28:15;;;;;;;30.27;14.27;;;;;;;;;;5091506;28;20044;-78
2021/12/27 04:30:41;;;;;;;29.02;14.77;;;;;;;;;;5091654;28;20040;-77
2021/12/27 04:33:07;;;;;;;27.25;13.35;;;;;;;;;;5091432;28;20102;-77
2021/12/27 04:35:33;;;;;;;30.95;14.55;;;;;;;;;;5091735;28;20040;-78
2021/12/27 04:37:59;;;;;;;29.27;14.10;;;;;;;;;;5091605;28;20032;-78
2021/12/27 04:40:27;;;;;;;29.90;14.48;;;;;;;;;;5091894;28;20079;-78
2021/12/27 04:42:55;;;;;;;29.35;13.00;;;;;;;;;;5091662;28;20484;-78
2021/12/27 04:45:21;;;;;;;29.42;13.93;;;;;;;;;;5091778;28;20051;-77
2021/12/27 04:47:47;;;;;;;29.30;14.55;;;;;;;;;;5091530;28;20051;-78
2021/12/27 04:50:13;;;;;;;25.23;12.85;;;;;;;;;;5091332;28;20044;-78
2021/12/27 04:52:39;;;;;;;29.85;14.40;;;;;;;;;;5091809;28;20036;-78
2021/12/27 04:55:05;;;;;;;27.55;14.65;;;;;;;;;;5091357;28;20042;-78
2021/12/27 04:57:31;;;;;;;27.30;13.85;;;;;;;;;;5091586;28;20032;-77
2021/12/27 04:59:57;;;;;;;26.38;13.65;;;;;;;;;;5091476;28;20094;-78
2021/12/27 05:02:23;;;;;;;29.73;14.27;;;;;;;;;;5089860;28;20399;-78
2021/12/27 05:04:49;;;;;;;27.58;12.73;;;;;;;;;;5055409;28;1021372;-78
2021/12/27 05:07:15;;;;;;;26.85;12.73;;;;;;;;;;5092332;28;20073;-78
2021/12/27 05:09:41;;;;;;;28.08;14.43;;;;;;;;;;5092134;28;20051;-77
2021/12/27 05:12:08;;;;;;;31.63;13.68;;;;;;;;;;5092435;28;20032;-78
2021/12/27 05:14:33;;;;;;;29.88;13.48;;;;;;;;;;5091988;28;20059;-78
2021/12/27 05:17:00;;;;;;;31.73;13.98;;;;;;;;;;5092086;28;20062;-78
2021/12/27 05:19:26;;;;;;;31.95;14.38;;;;;;;;;;5092130;28;20070;-78
2021/12/27 05:21:52;;;;;;;26.98;13.35;;;;;;;;;;5091892;28;20040;-78
2021/12/27 05:24:19;;;;;;;25.23;13.57;;;;;;;;;;5092055;28;20242;-77
2021/12/27 05:26:45;;;;;;;28.58;14.02;;;;;;;;;;5091895;28;20324;-77
2021/12/27 05:29:11;;;;;;;28.60;12.75;;;;;;;;;;5091610;28;20131;-78
2021/12/27 05:31:37;;;;;;;32.60;14.88;;;;;;;;;;5090708;28;20036;-76
2021/12/27 05:34:03;;;;;;;27.98;14.25;;;;;;;;;;5075627;28;20119;-77
2021/12/27 05:36:29;;;;;;;23.98;12.50;;;;;;;;;;5091850;28;20043;-77
2021/12/27 05:38:55;;;;;;;36.47;14.35;;;;;;;;;;5091293;28;20522;-77
2021/12/27 05:41:21;;;;;;;27.88;14.63;;;;;;;;;;5091695;28;20539;-77
2021/12/27 05:43:47;;;;;;;29.67;14.70;;;;;;;;;;5091708;28;20044;-78
2021/12/27 05:46:13;;;;;;;28.77;15.18;;;;;;;;;;5091463;28;20165;-77
2021/12/27 05:48:39;;;;;;;26.67;13.38;;;;;;;;;;5091391;28;20039;-77
2021/12/27 05:51:05;;;;;;;33.15;15.98;;;;;;;;;;5091300;28;20127;-78
2021/12/27 05:53:31;;;;;;;30.08;14.57;;;;;;;;;;5091398;28;20058;-77
2021/12/27 05:55:57;;;;;;;29.92;13.20;;;;;;;;;;5091312;28;20040;-77
2021/12/27 05:58:23;;;;;;;30.17;14.10;;;;;;;;;;5091034;28;20070;-77
2021/12/27 06:00:49;;;;;;;31.02;15.10;;;;;;;;;;5091424;28;20480;-77
2021/12/27 06:03:15;;;;;;;30.17;14.07;;;;;;;;;;5089827;28;20123;-77
2021/12/27 06:05:41;;;;;;;30.27;14.65;;;;;;;;;;5091045;28;20054;-78
2021/12/27 06:08:07;;;;;;;33.55;14.43;;;;;;;;;;5090917;28;20535;-77
2021/12/27 06:10:33;;;;;;;29.70;14.60;;;;;;;;;;5090999;28;20040;-77
2021/12/27 06:12:59;;;;;;;31.80;14.70;;;;;;;;;;5091159;28;20043;-77
2021/12/27 06:15:25;;;;;;;28.95;15.00;;;;;;;;;;5090827;28;20127;-77
2021/12/27 06:17:51;;;;;;;28.30;14.65;;;;;;;;;;5091119;28;20047;-77
2021/12/27 06:20:18;;;;;;;28.40;13.77;;;;;;;;;;5091088;28;20032;-77
2021/12/27 06:22:52;;;;;;;30.50;14.35;;;;;;;;;;5090759;28;20412;-77
2021/12/27 06:25:18;;;;;;;33.40;15.38;;;;;;;;;;5090711;28;20040;-77
2021/12/27 06:27:44;;;;;;;31.88;15.65;;;;;;;;;;5090742;28;20495;-77
2021/12/27 06:30:11;;;;;;;32.78;15.48;;;;;;;;;;5090886;28;20475;-77
2021/12/27 06:32:38;;;;;;;26.02;14.30;;;;;;;;;;5089303;28;20038;-78
2021/12/27 06:35:05;;;;;;;31.27;14.63;;;;;;;;;;5090248;28;20058;-77
2021/12/27 06:37:31;;;;;;;30.42;15.10;;;;;;;;;;5090725;28;20161;-78
2021/12/27 06:39:57;;;;;;;33.00;15.27;;;;;;;;;;5090630;28;20040;-77
2021/12/27 06:42:24;;;;;;;34.17;16.10;;;;;;;;;;5090367;28;20040;-77
2021/12/27 06:44:50;;;;;;;31.60;14.73;;;;;;;;;;5090714;28;20067;-78
2021/12/27 06:47:16;;;;;;;36.15;16.27;;;;;;;;;;5090705;28;20123;-77
2021/12/27 06:49:42;;;;;;;35.38;15.30;;;;;;;;;;5090661;28;20076;-77
2021/12/27 06:52:11;;;;;;;27.88;13.73;;;;;;;;;;5090522;28;20076;-77
2021/12/27 06:54:37;;;;;;;29.77;15.68;;;;;;;;;;5090155;28;20036;-77
2021/12/27 06:57:03;;;;;;;32.45;15.30;;;;;;;;;;5090336;28;20081;-77
2021/12/27 06:59:30;;;;;;;28.27;14.75;;;;;;;;;;5090541;28;20074;-78
2021/12/27 07:01:56;;;;;;;32.45;15.38;;;;;;;;;;5090077;28;20040;-77
2021/12/27 07:04:22;;;;;;;35.17;15.85;;;;;;;;;;5092856;28;20077;-78
2021/12/27 07:06:48;;;;;;;27.77;14.40;;;;;;;;;;5093624;28;20060;-78
2021/12/27 07:09:14;;;;;;;33.22;15.32;;;;;;;;;;5110706;28;20134;-77
2021/12/27 07:11:41;;;;;;;31.00;14.80;;;;;;;;;;5093602;28;20042;-78
2021/12/27 07:14:07;;;;;;;31.83;14.43;;;;;;;;;;5110570;28;20070;-78
2021/12/27 07:16:33;;;;;;;31.27;15.52;;;;;;;;;;5110551;28;20051;-76
2021/12/27 07:18:59;;;;;;;28.60;14.70;;;;;;;;;;5110574;28;20158;-77
2021/12/27 07:21:25;;;;;;;29.73;15.88;;;;;;;;;;5110816;28;20100;-77
2021/12/27 07:23:51;;;;;;;33.95;15.95;;;;;;;;;;5093738;28;20057;-78
2021/12/27 07:26:17;;;;;;;31.50;16.25;;;;;;;;;;5110616;28;20127;-77
2021/12/27 07:28:43;;;;;;;33.58;15.25;;;;;;;;;;5093604;28;20039;-77
2021/12/27 07:31:10;;;;;;;41.40;15.98;;;;;;;;;;5110470;28;20054;-77
2021/12/27 07:33:36;;;;;;;27.73;15.10;;;;;;;;;;5108618;28;20039;-77
2021/12/27 07:36:03;;;;;;;30.33;14.20;;;;;;;;;;5093497;28;20437;-77
2021/12/27 07:38:29;;;;;;;34.05;17.20;;;;;;;;;;5110310;28;20071;-77
2021/12/27 07:40:55;;;;;;;30.55;15.23;;;;;;;;;;5093254;28;20035;-77
2021/12/27 07:43:21;;;;;;;40.15;16.63;;;;;;;;;;5110997;28;20040;-78
2021/12/27 07:45:47;;;;;;;31.88;15.43;;;;;;;;;;5094176;28;20070;-78
2021/12/27 07:48:13;;;;;;;31.05;14.93;;;;;;;;;;5110370;28;20035;-78
2021/12/27 07:50:39;;;;;;;36.38;16.58;;;;;;;;;;5111507;28;20044;-78
2021/12/27 07:53:05;;;;;;;35.00;15.57;;;;;;;;;;5094386;28;20131;-78
2021/12/27 07:55:32;;;;;;;34.60;16.38;;;;;;;;;;5097502;28;20038;-78
2021/12/27 07:57:59;;;;;;;32.88;16.23;;;;;;;;;;5093615;28;20480;-78
2021/12/27 08:00:25;;;;;;;35.75;16.10;;;;;;;;;;5093316;28;20035;-77
2021/12/27 08:02:51;;;;;;;35.28;15.25;;;;;;;;;;5101176;28;20126;-78
2021/12/27 08:05:17;;;;;;;30.17;15.18;;;;;;;;;;5089846;28;20060;-78
2021/12/27 08:07:43;;;;;;;33.05;14.98;;;;;;;;;;5089855;28;20446;-78
2021/12/27 08:10:10;;;;;;;33.00;14.50;;;;;;;;;;5089813;28;20039;-78
2021/12/27 08:12:36;;;;;;;36.10;15.55;;;;;;;;;;5089964;28;20032;-77
2021/12/27 08:15:04;;;;;;;39.53;16.63;;;;;;;;;;5089682;28;20046;-78
2021/12/27 08:17:30;;;;;;;39.72;17.42;;;;;;;;;;5089626;28;20442;-78
2021/12/27 08:19:56;;;;;;;34.30;14.45;;;;;;;;;;5089686;28;20379;-78
2021/12/27 08:22:22;;;;;;;32.50;14.73;;;;;;;;;;5089467;28;20463;-77
2021/12/27 08:24:48;;;;;;;39.20;17.98;;;;;;;;;;5089522;28;20059;-77
2021/12/27 08:27:14;;;;;;;34.47;15.90;;;;;;;;;;5089705;28;20127;-78
2021/12/27 08:29:40;;;;;;;32.25;15.45;;;;;;;;;;5089428;28;20048;-78
2021/12/27 08:32:06;;;;;;;36.75;16.17;;;;;;;;;;5089240;28;20440;-78
2021/12/27 08:34:32;;;;;;;34.60;15.25;;;;;;;;;;5091840;28;20032;-77
2021/12/27 08:36:58;;;;;;;30.80;14.32;;;;;;;;;;5092297;28;20050;-78
2021/12/27 08:39:24;;;;;;;39.47;15.98;;;;;;;;;;5109612;28;20387;-78
2021/12/27 08:41:50;;;;;;;33.80;15.93;;;;;;;;;;5109467;28;20082;-78
2021/12/27 08:44:16;;;;;;;37.67;15.98;;;;;;;;;;5092030;28;20131;-77
2021/12/27 08:46:42;;;;;;;36.20;15.50;;;;;;;;;;5109334;28;20544;-78
2021/12/27 08:49:09;;;;;;;36.38;16.58;;;;;;;;;;5109340;28;20043;-78
2021/12/27 08:51:35;;;;;;;36.00;16.95;;;;;;;;;;5092237;28;20046;-78
2021/12/27 08:54:01;;;;;;;39.15;16.13;;;;;;;;;;5109154;28;20070;-78
2021/12/27 08:56:27;;;;;;;41.40;16.10;;;;;;;;;;5108972;28;20126;-78
2021/12/27 08:58:54;;;;;;;38.10;14.98;;;;;;;;;;5108581;28;20118;-78
2021/12/27 09:01:20;;;;;;;37.22;16.02;;;;;;;;;;5091972;28;20124;-78
2021/12/27 09:03:46;;;;;;;38.25;17.25;;;;;;;;;;5091588;28;20044;-79
2021/12/27 09:06:14;;;;;;;40.55;16.65;;;;;;;;;;5107752;28;20583;-78
2021/12/27 09:08:40;;;;;;;46.70;18.10;;;;;;;;;;5091457;28;20123;-78
2021/12/27 09:11:06;;;;;;;40.55;17.75;;;;;;;;;;5108367;28;20475;-78
2021/12/27 09:13:33;;;;;;;39.60;16.83;;;;;;;;;;5108696;28;20065;-78
2021/12/27 09:16:01;;;;;;;43.63;17.08;;;;;;;;;;5091608;28;20039;-78
2021/12/27 09:18:28;;;;;;;43.90;16.00;;;;;;;;;;5108612;28;20043;-78
2021/12/27 09:20:54;;;;;;;41.13;16.20;;;;;;;;;;5108176;28;20411;-78
2021/12/27 09:23:20;;;;;;;48.55;17.80;;;;;;;;;;5091807;28;20043;-77
2021/12/27 09:25:47;;;;;;;44.22;17.05;;;;;;;;;;5108405;28;20446;-78
2021/12/27 09:28:13;;;;;;;42.75;16.38;;;;;;;;;;5084935;28;20528;-78
2021/12/27 09:30:39;;;;;;;37.88;15.48;;;;;;;;;;5078046;28;20421;-78
2021/12/27 09:33:05;;;;;;;40.65;16.95;;;;;;;;;;5072254;28;20032;-78
2021/12/27 09:35:32;;;;;;;37.80;16.63;;;;;;;;;;5076612;28;20033;-78
2021/12/27 09:37:58;;;;;;;38.85;16.13;;;;;;;;;;5076980;28;20040;-78
2021/12/27 09:40:24;;;;;;;41.95;17.23;;;;;;;;;;5077811;28;20044;-78
2021/12/27 09:42:52;;;;;;;48.10;18.05;;;;;;;;;;5085245;28;20048;-78
2021/12/27 09:45:18;;;;;;;47.03;17.45;;;;;;;;;;5087401;28;20073;-79
2021/12/27 09:47:47;;;;;;;38.75;14.27;;;;;;;;;;5087750;28;20059;-79
2021/12/27 09:50:14;;;;;;;42.28;16.92;;;;;;;;;;5087461;28;20043;-78
2021/12/27 09:52:40;;;;;;;47.10;17.60;;;;;;;;;;5087450;28;20036;-78
2021/12/27 09:55:06;;;;;;;42.92;17.25;;;;;;;;;;5087465;28;20086;-78
2021/12/27 09:57:33;;;;;;;41.97;17.25;;;;;;;;;;5087004;28;20500;-78
2021/12/27 09:59:59;;;;;;;45.00;17.23;;;;;;;;;;5087192;28;20043;-79
2021/12/27 10:02:25;;;;;;;45.55;17.02;;;;;;;;;;5087126;28;20086;-78
2021/12/27 10:04:53;;;;;;;47.85;17.17;;;;;;;;;;5087194;28;20044;-78
2021/12/27 10:07:23;;;;;;;53.90;18.40;;;;;;;;;;5087191;28;20133;-78
2021/12/27 10:09:58;;;;;;;46.17;16.48;;;;;;;;;;5086598;28;20095;-78
2021/12/27 10:12:24;;;;;;;43.47;17.00;;;;;;;;;;5087207;28;20598;-78
2021/12/27 10:15:00;;;;;;;40.30;16.65;;;;;;;;;;5087498;28;20464;-78
2021/12/27 10:17:26;;;;;;;42.10;16.90;;;;;;;;;;5087016;28;20563;-78
2021/12/27 10:19:53;;;;;;;51.20;19.23;;;;;;;;;;5087370;28;20048;-79
2021/12/27 10:22:20;;;;;;;48.38;17.98;;;;;;;;;;5086412;28;20135;-78
2021/12/27 10:24:48;;;;;;;49.05;17.83;;;;;;;;;;5087093;28;20055;-78
2021/12/27 10:27:15;;;;;;;48.35;17.20;;;;;;;;;;5087214;28;20086;-79
2021/12/27 10:29:41;;;;;;;44.83;16.80;;;;;;;;;;5082145;28;20037;-78
2021/12/27 10:32:10;;;;;;;47.70;17.23;;;;;;;;;;5080098;28;20061;-78
2021/12/27 10:34:47;;;;;;;50.80;19.08;;;;;;;;;;5103560;28;20143;-78
2021/12/27 10:37:24;;;;;;;49.50;17.33;;;;;;;;;;5086744;28;20047;-79
2021/12/27 10:39:53;;;;;;;48.85;17.58;;;;;;;;;;5086740;28;20082;-78
2021/12/27 10:42:21;;;;;;;50.13;17.75;;;;;;;;;;5087310;28;20048;-78
2021/12/27 10:44:51;;;;;;;49.85;18.08;;;;;;;;;;5086525;28;20105;-77
2021/12/27 10:47:23;;;;;;;49.60;17.92;;;;;;;;;;5103849;28;20155;-77
2021/12/27 10:49:50;;;;;;;50.47;18.92;;;;;;;;;;5104333;28;20063;-78
2021/12/27 10:52:16;;;;;;;52.22;18.20;;;;;;;;;;5085637;28;20571;-78
2021/12/27 10:54:42;;;;;;;51.45;18.13;;;;;;;;;;5087302;28;20155;-78
2021/12/27 10:57:08;;;;;;;46.35;15.98;;;;;;;;;;5085816;28;20048;-78
2021/12/27 10:59:35;;;;;;;49.97;18.27;;;;;;;;;;5078036;28;20555;-79
2021/12/27 11:02:13;;;;;;;58.83;20.45;;;;;;;;;;5087078;28;20051;-78
2021/12/27 11:04:39;;;;;;;53.78;18.63;;;;;;;;;;5072158;28;20492;-78
2021/12/27 11:07:06;;;;;;;51.17;17.98;;;;;;;;;;5066427;28;20255;-78
2021/12/27 11:09:32;;;;;;;57.50;19.13;;;;;;;;;;5065963;28;20045;-78
2021/12/27 11:11:58;;;;;;;45.95;17.63;;;;;;;;;;5066393;28;20464;-78
2021/12/27 11:14:24;;;;;;;49.75;17.60;;;;;;;;;;5066378;28;20133;-78
2021/12/27 11:16:50;;;;;;;60.72;20.17;;;;;;;;;;5066269;28;20052;-77
2021/12/27 11:19:16;;;;;;;56.03;18.08;;;;;;;;;;5066396;28;20912;-78
2021/12/27 11:21:44;;;;;;;57.97;17.80;;;;;;;;;;5075647;28;20043;-78
2021/12/27 11:24:11;;;;;;;46.20;16.45;;;;;;;;;;5086306;28;20043;-78
2021/12/27 11:26:40;;;;;;;56.38;18.08;;;;;;;;;;5088109;28;20542;-78
2021/12/27 11:29:13;;;;;;;52.10;18.17;;;;;;;;;;5109245;28;20135;-78
2021/12/27 11:31:40;;;;;;;53.60;17.50;;;;;;;;;;5110965;28;20093;-78
2021/12/27 11:34:12;;;;;;;49.47;17.25;;;;;;;;;;5090196;28;20377;-79
2021/12/27 11:36:40;;;;;;;50.55;17.38;;;;;;;;;;5090726;28;20036;-78
2021/12/27 11:39:25;;;;;;;52.30;17.73;;;;;;;;;;5090665;28;20040;-78
2021/12/27 11:41:57;;;;;;;52.53;20.02;;;;;;;;;;5084560;28;20557;-78
2021/12/27 11:44:32;;;;;;;54.15;17.90;;;;;;;;;;5081036;28;20032;-78
2021/12/27 11:46:59;;;;;;;62.45;18.20;;;;;;;;;;5080724;28;20040;-78
2021/12/27 11:49:32;;;;;;;57.13;19.08;;;;;;;;;;5079059;28;20460;-79
2021/12/27 11:52:19;;;;;;;57.88;18.13;;;;;;;;;;5078418;28;20047;-78
2021/12/27 11:54:48;;;;;;;49.97;18.25;;;;;;;;;;5075130;28;20040;-78
2021/12/27 11:57:34;;;;;;;53.80;19.02;;;;;;;;;;5069387;28;20467;-78
2021/12/27 12:00:00;;;;;;;57.70;18.88;;;;;;;;;;5069392;28;20053;-78
2021/12/27 12:02:27;;;;;;;55.53;19.20;;;;;;;;;;5076798;28;20043;-78
2021/12/27 12:04:55;;;;;;;52.97;18.52;;;;;;;;;;5093835;28;20039;-78
2021/12/27 12:07:33;;;;;;;65.28;18.45;;;;;;;;;;5113667;28;20043;-78
2021/12/27 12:10:01;;;;;;;55.78;18.48;;;;;;;;;;5096647;28;20098;-78
2021/12/27 12:12:28;;;;;;;62.47;18.83;;;;;;;;;;5114023;28;20047;-78
2021/12/27 12:14:55;;;;;;;68.10;19.30;;;;;;;;;;5096637;28;20427;-78
2021/12/27 12:17:35;;;;;;;71.40;20.27;;;;;;;;;;5113584;28;20039;-78
2021/12/27 12:20:01;;;;;;;72.10;20.60;;;;;;;;;;5113541;28;20046;-78
2021/12/27 12:22:38;;;;;;;59.20;20.77;;;;;;;;;;5113581;28;20047;-78
2021/12/27 12:25:16;;;;;;;64.80;17.88;;;;;;;;;;5096456;28;20559;-79
2021/12/27 12:27:49;;;;;;;72.30;20.42;;;;;;;;;;5096426;28;20050;-79
2021/12/27 12:30:15;;;;;;;61.42;19.60;;;;;;;;;;5113358;28;20048;-78
2021/12/27 12:32:54;;;;;;;59.38;18.27;;;;;;;;;;5111335;28;20107;-79
2021/12/27 12:35:34;;;;;;;59.08;18.60;;;;;;;;;;5113093;28;20031;-79
2021/12/27 12:38:09;;;;;;;59.15;18.55;;;;;;;;;;5109436;28;20089;-78
2021/12/27 12:40:35;;;;;;;58.35;18.67;;;;;;;;;;5072260;28;20551;-78
2021/12/27 12:43:01;;;;;;;57.20;18.00;;;;;;;;;;5072490;28;20068;-79
2021/12/27 12:45:31;;;;;;;56.58;18.73;;;;;;;;;;5072591;28;20040;-78
2021/12/27 12:47:56;;;;;;;59.45;19.40;;;;;;;;;;5072459;28;20044;-78
2021/12/27 12:50:23;;;;;;;54.10;17.67;;;;;;;;;;5072311;28;20048;-78
2021/12/27 12:52:52;;;;;;;56.53;18.10;;;;;;;;;;5078414;28;20039;-78
2021/12/27 12:55:27;;;;;;;52.38;19.58;;;;;;;;;;5092531;28;20043;-78
2021/12/27 12:57:53;;;;;;;51.90;18.30;;;;;;;;;;5092675;28;20043;-78
2021/12/27 13:00:23;;;;;;;59.72;19.08;;;;;;;;;;5092240;28;20051;-78
2021/12/27 13:02:49;;;;;;;62.55;20.52;;;;;;;;;;5098298;28;20043;-78
2021/12/27 13:05:16;;;;;;;69.50;20.15;;;;;;;;;;5112746;28;20407;-79
2021/12/27 13:07:46;;;;;;;53.00;17.73;;;;;;;;;;5112650;28;20565;-78
2021/12/27 13:10:18;;;;;;;60.83;18.43;;;;;;;;;;5095650;28;20069;-77
2021/12/27 13:12:45;;;;;;;66.75;20.77;;;;;;;;;;5112702;28;20311;-78
2021/12/27 13:15:12;;;;;;;60.60;19.27;;;;;;;;;;5112749;28;20032;-78
2021/12/27 13:17:38;;;;;;;64.95;19.52;;;;;;;;;;5112745;28;20118;-78
2021/12/27 13:20:10;;;;;;;58.95;19.02;;;;;;;;;;5095622;28;20040;-78
2021/12/27 13:22:35;;;;;;;;;;;;;;;;;;5093251;28;20124;-78
2021/12/27 13:25:01;;;;;;;61.88;19.38;;;;;;;;;;5071765;28;20034;-78
2021/12/27 13:27:28;;;;;;;71.28;19.65;;;;;;;;;;5071996;28;20048;-78
2021/12/27 13:30:24;;;;;;;54.55;18.42;;;;;;;;;;5071463;28;20518;-78
2021/12/27 13:32:50;;;;;;;67.30;20.38;;;;;;;;;;5073518;28;20600;-78
2021/12/27 13:35:18;;;;;;;65.28;20.00;;;;;;;;;;5111890;28;20122;-78
2021/12/27 13:37:45;;;;;;;73.53;20.15;;;;;;;;;;5112024;28;20100;-78
2021/12/27 13:40:16;;;;;;;67.68;21.10;;;;;;;;;;5111930;28;20051;-78
2021/12/27 13:42:42;;;;;;;68.72;21.02;;;;;;;;;;5094943;28;20135;-78
2021/12/27 13:45:18;;;;;;;74.28;21.15;;;;;;;;;;5111933;28;20138;-78
2021/12/27 13:47:51;;;;;;;60.63;19.65;;;;;;;;;;5111763;28;20074;-78
2021/12/27 13:50:25;;;;;;;67.70;20.75;;;;;;;;;;5093983;28;20058;-77
2021/12/27 13:52:52;;;;;;;76.35;21.52;;;;;;;;;;5094529;28;20047;-77
2021/12/27 13:55:28;;;;;;;68.43;20.00;;;;;;;;;;5111680;28;20047;-78
2021/12/27 13:57:54;;;;;;;67.15;21.55;;;;;;;;;;5094305;28;20437;-78
2021/12/27 14:00:31;;;;;;;63.70;20.75;;;;;;;;;;5111565;28;20035;-78
2021/12/27 14:02:59;;;;;;;69.55;20.25;;;;;;;;;;5110171;28;20047;-77
2021/12/27 14:05:27;;;;;;;64.78;21.70;;;;;;;;;;5094449;28;20062;-78
2021/12/27 14:07:53;;;;;;;62.85;19.95;;;;;;;;;;5111422;28;20075;-78
2021/12/27 14:10:27;;;;;;;72.38;20.70;;;;;;;;;;5111383;28;20050;-78
2021/12/27 14:13:00;;;;;;;58.97;21.02;;;;;;;;;;5111376;28;20049;-78
2021/12/27 14:15:30;;;;;;;54.17;18.50;;;;;;;;;;5094297;28;20031;-78
2021/12/27 14:18:07;;;;;;;49.42;19.58;;;;;;;;;;5111344;28;20092;-78
2021/12/27 14:20:33;;;;;;;57.95;18.35;;;;;;;;;;5111087;28;20422;-78